sensor_id;sensor_type;location;lat;lon;timestamp;pressure;altitude;pressure_sealevel;temperature;humidity
64933;BME280;51446;53.850;10.662;2022-08-11T00:01:32;102462.13;;;17.40;74.97
64933;BME280;51446;53.850;10.662;2022-08-11T00:04:02;102459.53;;;17.43;74.46
64933;BME280;51446;53.850;10.662;2022-08-11T00:06:31;102450.63;;;17.40;74.68
64933;BME280;51446;53.850;10.662;2022-08-11T00:08:58;102445.16;;;17.29;74.30
64933;BME280;51446;53.850;10.662;2022-08-11T00:11:33;102460.25;;;17.31;74.28
64933;BME280;51446;53.850;10.662;2022-08-11T00:13:59;102461.91;;;17.26;73.98
64933;BME280;51446;53.850;10.662;2022-08-11T00:16:25;102461.72;;;17.14;74.11
64933;BME280;51446;53.850;10.662;2022-08-11T00:18:54;102460.72;;;17.06;74.97
64933;BME280;51446;53.850;10.662;2022-08-11T00:21:21;102457.91;;;16.96;75.49
64933;BME280;51446;53.850;10.662;2022-08-11T00:23:53;102452.78;;;17.07;74.97
64933;BME280;51446;53.850;10.662;2022-08-11T00:26:20;102454.22;;;16.88;75.28
64933;BME280;51446;53.850;10.662;2022-08-11T00:28:46;102451.41;;;16.79;76.60
64933;BME280;51446;53.850;10.662;2022-08-11T00:31:28;102451.44;;;16.82;76.75
64933;BME280;51446;53.850;10.662;2022-08-11T00:33:57;102439.00;;;16.76;76.62
64933;BME280;51446;53.850;10.662;2022-08-11T00:36:27;102441.44;;;16.62;76.14
64933;BME280;51446;53.850;10.662;2022-08-11T00:38:55;102445.63;;;16.51;78.37
64933;BME280;51446;53.850;10.662;2022-08-11T00:44:41;102456.34;;;16.59;77.91
64933;BME280;51446;53.850;10.662;2022-08-11T00:47:42;102451.09;;;16.60;77.30
64933;BME280;51446;53.850;10.662;2022-08-11T01:04:06;102454.84;;;16.24;79.56
64933;BME280;51446;53.850;10.662;2022-08-11T01:06:51;102452.06;;;16.17;79.58
64933;BME280;51446;53.850;10.662;2022-08-11T01:15:57;102450.81;;;15.99;80.16
64933;BME280;51446;53.850;10.662;2022-08-11T01:18:59;102447.22;;;15.95;81.50
64933;BME280;51446;53.850;10.662;2022-08-11T01:24:38;102456.94;;;15.97;81.37
64933;BME280;51446;53.850;10.662;2022-08-11T01:27:31;102452.31;;;15.86;81.66
64933;BME280;51446;53.850;10.662;2022-08-11T01:30:25;102455.59;;;15.76;81.85
64933;BME280;51446;53.850;10.662;2022-08-11T01:33:25;102452.28;;;15.85;81.80
64933;BME280;51446;53.850;10.662;2022-08-11T01:46:00;102457.81;;;15.56;82.34
64933;BME280;51446;53.850;10.662;2022-08-11T01:48:50;102466.84;;;15.67;81.34
64933;BME280;51446;53.850;10.662;2022-08-11T01:51:30;102465.78;;;15.57;82.23
64933;BME280;51446;53.850;10.662;2022-08-11T01:54:15;102467.25;;;15.44;83.16
64933;BME280;51446;53.850;10.662;2022-08-11T01:57:27;102475.97;;;15.40;83.94
64933;BME280;51446;53.850;10.662;2022-08-11T01:59:53;102464.22;;;15.27;83.61
64933;BME280;51446;53.850;10.662;2022-08-11T02:05:19;102459.63;;;15.20;84.04
64933;BME280;51446;53.850;10.662;2022-08-11T02:08:02;102461.50;;;15.24;83.74
64933;BME280;51446;53.850;10.662;2022-08-11T02:13:45;102461.91;;;15.41;82.92
64933;BME280;51446;53.850;10.662;2022-08-11T02:18:54;102459.34;;;15.46;82.00
64933;BME280;51446;53.850;10.662;2022-08-11T02:21:50;102457.34;;;15.34;82.27
64933;BME280;51446;53.850;10.662;2022-08-11T02:24:48;102461.59;;;15.29;82.58
64933;BME280;51446;53.850;10.662;2022-08-11T02:27:23;102463.22;;;15.24;83.10
64933;BME280;51446;53.850;10.662;2022-08-11T02:29:58;102463.38;;;15.29;83.33
64933;BME280;51446;53.850;10.662;2022-08-11T02:36:09;102459.22;;;15.03;83.16
64933;BME280;51446;53.850;10.662;2022-08-11T02:38:49;102452.06;;;14.99;84.97
64933;BME280;51446;53.850;10.662;2022-08-11T02:41:24;102451.13;;;14.96;84.67
64933;BME280;51446;53.850;10.662;2022-08-11T02:44:26;102452.22;;;15.04;85.24
64933;BME280;51446;53.850;10.662;2022-08-11T02:47:06;102449.88;;;15.18;84.81
64933;BME280;51446;53.850;10.662;2022-08-11T02:50:01;102446.31;;;15.16;84.51
64933;BME280;51446;53.850;10.662;2022-08-11T02:52:50;102440.28;;;15.21;83.48
64933;BME280;51446;53.850;10.662;2022-08-11T02:58:36;102448.97;;;15.16;84.28
64933;BME280;51446;53.850;10.662;2022-08-11T03:01:22;102448.06;;;15.15;83.59
64933;BME280;51446;53.850;10.662;2022-08-11T03:04:10;102453.50;;;15.21;83.77
64933;BME280;51446;53.850;10.662;2022-08-11T03:06:49;102458.00;;;15.25;83.78
64933;BME280;51446;53.850;10.662;2022-08-11T03:12:01;102456.00;;;15.17;83.16
64933;BME280;51446;53.850;10.662;2022-08-11T03:14:53;102456.56;;;15.02;83.63
64933;BME280;51446;53.850;10.662;2022-08-11T03:20:33;102460.63;;;14.89;84.23
64933;BME280;51446;53.850;10.662;2022-08-11T03:23:05;102454.38;;;14.84;84.39
64933;BME280;51446;53.850;10.662;2022-08-11T03:25:48;102457.22;;;14.93;84.55
64933;BME280;51446;53.850;10.662;2022-08-11T03:31:17;102447.63;;;14.62;85.26
64933;BME280;51446;53.850;10.662;2022-08-11T03:33:48;102445.53;;;14.50;86.39
64933;BME280;51446;53.850;10.662;2022-08-11T03:39:38;102446.88;;;14.67;87.20
64933;BME280;51446;53.850;10.662;2022-08-11T03:47:36;102450.56;;;14.72;84.91
64933;BME280;51446;53.850;10.662;2022-08-11T03:50:24;102445.06;;;14.65;85.43
64933;BME280;51446;53.850;10.662;2022-08-11T04:13:27;102442.34;;;14.97;84.58
64933;BME280;51446;53.850;10.662;2022-08-11T04:15:58;102444.63;;;15.19;83.64
64933;BME280;51446;53.850;10.662;2022-08-11T04:18:46;102442.06;;;15.22;82.61
64933;BME280;51446;53.850;10.662;2022-08-11T04:30:27;102437.16;;;15.39;81.74
64933;BME280;51446;53.850;10.662;2022-08-11T04:48:05;102436.81;;;16.03;80.88
64933;BME280;51446;53.850;10.662;2022-08-11T04:57:52;102446.72;;;17.14;75.72
64933;BME280;51446;53.850;10.662;2022-08-11T05:01:22;102444.53;;;16.89;77.52
64933;BME280;51446;53.850;10.662;2022-08-11T05:10:12;102447.56;;;16.60;79.52
64933;BME280;51446;53.850;10.662;2022-08-11T05:15:17;102452.94;;;16.64;81.42
64933;BME280;51446;53.850;10.662;2022-08-11T05:18:28;102450.41;;;16.72;81.79
64933;BME280;51446;53.850;10.662;2022-08-11T05:21:14;102439.91;;;16.77;81.43
64933;BME280;51446;53.850;10.662;2022-08-11T05:24:12;102456.09;;;16.94;81.66
64933;BME280;51446;53.850;10.662;2022-08-11T05:27:02;102447.34;;;16.99;82.49
64933;BME280;51446;53.850;10.662;2022-08-11T05:30:00;102457.28;;;17.11;82.18
64933;BME280;51446;53.850;10.662;2022-08-11T05:32:52;102454.75;;;17.19;81.39
64933;BME280;51446;53.850;10.662;2022-08-11T05:35:44;102451.59;;;17.45;80.94
64933;BME280;51446;53.850;10.662;2022-08-11T05:38:21;102450.13;;;17.70;78.05
64933;BME280;51446;53.850;10.662;2022-08-11T05:41:10;102454.41;;;17.59;79.38
64933;BME280;51446;53.850;10.662;2022-08-11T05:43:57;102451.19;;;17.81;79.47
64933;BME280;51446;53.850;10.662;2022-08-11T05:46:42;102448.69;;;17.91;78.38
64933;BME280;51446;53.850;10.662;2022-08-11T05:49:29;102451.47;;;18.03;77.76
64933;BME280;51446;53.850;10.662;2022-08-11T05:52:15;102451.63;;;18.15;77.20
64933;BME280;51446;53.850;10.662;2022-08-11T05:55:02;102450.81;;;18.21;76.93
64933;BME280;51446;53.850;10.662;2022-08-11T05:57:48;102451.06;;;18.46;74.44
64933;BME280;51446;53.850;10.662;2022-08-11T06:00:19;102453.88;;;18.61;75.30
64933;BME280;51446;53.850;10.662;2022-08-11T06:02:49;102461.06;;;18.75;73.26
64933;BME280;51446;53.850;10.662;2022-08-11T06:05:15;102470.13;;;18.95;72.25
64933;BME280;51446;53.850;10.662;2022-08-11T06:07:42;102468.47;;;19.11;72.16
64933;BME280;51446;53.850;10.662;2022-08-11T06:10:08;102461.63;;;19.49;69.91
64933;BME280;51446;53.850;10.662;2022-08-11T06:12:34;102469.66;;;19.58;68.28
64933;BME280;51446;53.850;10.662;2022-08-11T06:15:04;102467.03;;;19.61;68.56
64933;BME280;51446;53.850;10.662;2022-08-11T06:17:31;102461.09;;;20.33;66.01
64933;BME280;51446;53.850;10.662;2022-08-11T06:19:59;102460.22;;;21.56;62.69
64933;BME280;51446;53.850;10.662;2022-08-11T06:22:26;102463.59;;;22.02;60.44
64933;BME280;51446;53.850;10.662;2022-08-11T06:24:55;102460.78;;;22.26;59.15
64933;BME280;51446;53.850;10.662;2022-08-11T06:27:23;102463.38;;;22.45;55.54
64933;BME280;51446;53.850;10.662;2022-08-11T06:29:52;102467.03;;;23.40;54.24
64933;BME280;51446;53.850;10.662;2022-08-11T06:32:19;102467.63;;;24.93;49.99
64933;BME280;51446;53.850;10.662;2022-08-11T06:35:18;102467.47;;;25.96;45.73
64933;BME280;51446;53.850;10.662;2022-08-11T06:41:13;102461.88;;;27.16;42.83
64933;BME280;51446;53.850;10.662;2022-08-11T06:43:56;102452.75;;;27.22;41.80
64933;BME280;51446;53.850;10.662;2022-08-11T06:46:27;102455.06;;;27.69;40.69
64933;BME280;51446;53.850;10.662;2022-08-11T06:48:53;102457.56;;;27.44;40.48
64933;BME280;51446;53.850;10.662;2022-08-11T06:51:20;102456.94;;;27.34;40.34
64933;BME280;51446;53.850;10.662;2022-08-11T06:53:50;102455.91;;;27.40;41.25
64933;BME280;51446;53.850;10.662;2022-08-11T06:56:23;102451.81;;;28.17;39.80
64933;BME280;51446;53.850;10.662;2022-08-11T06:59:09;102449.38;;;28.10;41.34
64933;BME280;51446;53.850;10.662;2022-08-11T07:04:59;102452.50;;;29.06;37.88
64933;BME280;51446;53.850;10.662;2022-08-11T07:07:36;102457.63;;;28.88;39.38
64933;BME280;51446;53.850;10.662;2022-08-11T07:13:44;102456.53;;;30.16;34.91
64933;BME280;51446;53.850;10.662;2022-08-11T07:16:30;102453.31;;;30.06;34.39
64933;BME280;51446;53.850;10.662;2022-08-11T07:19:01;102459.19;;;29.46;35.55
64933;BME280;51446;53.850;10.662;2022-08-11T07:21:46;102450.09;;;29.23;35.26
64933;BME280;51446;53.850;10.662;2022-08-11T07:24:46;102457.34;;;29.72;36.78
64933;BME280;51446;53.850;10.662;2022-08-11T07:27:43;102459.06;;;29.73;34.18
64933;BME280;51446;53.850;10.662;2022-08-11T07:30:28;102453.47;;;31.52;32.25
64933;BME280;51446;53.850;10.662;2022-08-11T07:32:59;102454.09;;;31.96;31.46
64933;BME280;51446;53.850;10.662;2022-08-11T07:35:41;102452.50;;;31.73;32.42
64933;BME280;51446;53.850;10.662;2022-08-11T07:38:14;102453.47;;;31.72;31.25
64933;BME280;51446;53.850;10.662;2022-08-11T07:40:41;102454.63;;;31.67;33.08
64933;BME280;51446;53.850;10.662;2022-08-11T07:43:08;102453.38;;;31.74;32.84
64933;BME280;51446;53.850;10.662;2022-08-11T07:45:41;102453.47;;;31.72;32.57
64933;BME280;51446;53.850;10.662;2022-08-11T07:48:25;102449.50;;;31.98;32.03
64933;BME280;51446;53.850;10.662;2022-08-11T07:51:10;102456.97;;;32.68;29.08
64933;BME280;51446;53.850;10.662;2022-08-11T07:53:55;102461.09;;;33.45;28.38
64933;BME280;51446;53.850;10.662;2022-08-11T07:56:20;102458.72;;;31.94;31.57
64933;BME280;51446;53.850;10.662;2022-08-11T07:58:46;102447.00;;;32.49;30.20
64933;BME280;51446;53.850;10.662;2022-08-11T08:01:30;102451.53;;;32.31;30.99
64933;BME280;51446;53.850;10.662;2022-08-11T08:04:16;102457.13;;;32.82;29.40
64933;BME280;51446;53.850;10.662;2022-08-11T08:07:04;102456.97;;;32.85;30.75
64933;BME280;51446;53.850;10.662;2022-08-11T08:09:49;102458.91;;;32.47;31.38
64933;BME280;51446;53.850;10.662;2022-08-11T08:12:34;102462.06;;;34.57;27.02
64933;BME280;51446;53.850;10.662;2022-08-11T08:15:20;102463.91;;;35.47;25.37
64933;BME280;51446;53.850;10.662;2022-08-11T08:18:06;102459.34;;;34.88;25.29
64933;BME280;51446;53.850;10.662;2022-08-11T08:20:38;102464.28;;;33.87;27.69
64933;BME280;51446;53.850;10.662;2022-08-11T08:23:05;102451.88;;;34.13;28.04
64933;BME280;51446;53.850;10.662;2022-08-11T08:25:33;102458.44;;;33.28;30.01
64933;BME280;51446;53.850;10.662;2022-08-11T08:28:00;102462.53;;;33.52;28.33
64933;BME280;51446;53.850;10.662;2022-08-11T08:30:27;102454.34;;;33.52;27.64
64933;BME280;51446;53.850;10.662;2022-08-11T08:33:19;102465.50;;;33.13;28.80
64933;BME280;51446;53.850;10.662;2022-08-11T08:35:46;102460.75;;;34.33;27.49
64933;BME280;51446;53.850;10.662;2022-08-11T08:38:13;102460.25;;;35.17;25.26
64933;BME280;51446;53.850;10.662;2022-08-11T08:40:41;102454.56;;;34.61;27.03
64933;BME280;51446;53.850;10.662;2022-08-11T08:43:09;102455.97;;;33.72;26.17
64933;BME280;51446;53.850;10.662;2022-08-11T08:45:38;102454.47;;;34.93;25.57
64933;BME280;51446;53.850;10.662;2022-08-11T08:48:07;102451.44;;;34.67;26.90
64933;BME280;51446;53.850;10.662;2022-08-11T08:50:37;102462.06;;;35.62;25.35
64933;BME280;51446;53.850;10.662;2022-08-11T08:53:25;102453.91;;;34.88;25.49
64933;BME280;51446;53.850;10.662;2022-08-11T08:55:54;102450.25;;;36.72;22.86
64933;BME280;51446;53.850;10.662;2022-08-11T08:58:22;102443.72;;;35.92;24.05
64933;BME280;51446;53.850;10.662;2022-08-11T09:00:50;102447.34;;;35.78;24.46
64933;BME280;51446;53.850;10.662;2022-08-11T09:03:16;102443.03;;;35.74;23.84
64933;BME280;51446;53.850;10.662;2022-08-11T09:05:43;102436.81;;;35.58;24.87
64933;BME280;51446;53.850;10.662;2022-08-11T09:08:09;102439.91;;;34.78;25.44
64933;BME280;51446;53.850;10.662;2022-08-11T09:10:36;102442.06;;;35.90;24.92
64933;BME280;51446;53.850;10.662;2022-08-11T09:13:03;102441.69;;;36.91;22.61
64933;BME280;51446;53.850;10.662;2022-08-11T09:15:31;102439.91;;;36.22;23.89
64933;BME280;51446;53.850;10.662;2022-08-11T09:18:00;102430.03;;;34.31;27.34
64933;BME280;51446;53.850;10.662;2022-08-11T09:20:35;102425.25;;;35.40;26.13
64933;BME280;51446;53.850;10.662;2022-08-11T09:23:06;102425.38;;;34.79;27.23
64933;BME280;51446;53.850;10.662;2022-08-11T09:25:52;102423.44;;;34.03;27.07
64933;BME280;51446;53.850;10.662;2022-08-11T09:28:37;102426.31;;;36.08;25.01
64933;BME280;51446;53.850;10.662;2022-08-11T09:31:05;102413.25;;;36.26;23.06
64933;BME280;51446;53.850;10.662;2022-08-11T09:33:31;102421.00;;;36.19;22.02
64933;BME280;51446;53.850;10.662;2022-08-11T09:35:59;102415.13;;;34.52;26.44
64933;BME280;51446;53.850;10.662;2022-08-11T09:38:44;102410.78;;;35.09;25.47
64933;BME280;51446;53.850;10.662;2022-08-11T09:41:31;102409.91;;;34.94;26.31
64933;BME280;51446;53.850;10.662;2022-08-11T09:43:57;102414.44;;;34.33;28.08
64933;BME280;51446;53.850;10.662;2022-08-11T09:46:43;102398.31;;;35.77;24.45
64933;BME280;51446;53.850;10.662;2022-08-11T09:49:08;102400.69;;;35.54;23.66
64933;BME280;51446;53.850;10.662;2022-08-11T09:51:34;102406.41;;;34.92;26.86
64933;BME280;51446;53.850;10.662;2022-08-11T09:54:01;102399.97;;;33.68;28.40
64933;BME280;51446;53.850;10.662;2022-08-11T09:56:31;102404.25;;;34.97;25.88
64933;BME280;51446;53.850;10.662;2022-08-11T09:59:17;102392.91;;;34.44;27.48
64933;BME280;51446;53.850;10.662;2022-08-11T10:01:56;102389.16;;;34.61;25.55
64933;BME280;51446;53.850;10.662;2022-08-11T10:04:39;102382.41;;;34.83;25.12
64933;BME280;51446;53.850;10.662;2022-08-11T10:07:05;102390.81;;;34.64;28.38
64933;BME280;51446;53.850;10.662;2022-08-11T10:09:55;102384.09;;;36.26;23.89
64933;BME280;51446;53.850;10.662;2022-08-11T10:12:24;102380.59;;;35.55;24.97
64933;BME280;51446;53.850;10.662;2022-08-11T10:14:56;102381.34;;;36.54;23.46
64933;BME280;51446;53.850;10.662;2022-08-11T10:17:43;102384.09;;;36.26;23.77
64933;BME280;51446;53.850;10.662;2022-08-11T10:20:33;102374.47;;;35.52;25.68
64933;BME280;51446;53.850;10.662;2022-08-11T10:23:00;102367.63;;;35.59;24.78
64933;BME280;51446;53.850;10.662;2022-08-11T10:25:45;102375.00;;;35.86;24.28
64933;BME280;51446;53.850;10.662;2022-08-11T10:28:33;102373.47;;;36.36;22.54
64933;BME280;51446;53.850;10.662;2022-08-11T10:30:59;102373.06;;;36.68;23.29
64933;BME280;51446;53.850;10.662;2022-08-11T10:33:45;102373.03;;;35.88;25.33
64933;BME280;51446;53.850;10.662;2022-08-11T10:36:31;102368.22;;;36.19;24.46
64933;BME280;51446;53.850;10.662;2022-08-11T10:38:58;102366.94;;;35.97;25.19
64933;BME280;51446;53.850;10.662;2022-08-11T10:41:24;102353.81;;;35.19;24.56
64933;BME280;51446;53.850;10.662;2022-08-11T10:44:09;102355.75;;;36.55;23.88
64933;BME280;51446;53.850;10.662;2022-08-11T10:46:35;102346.03;;;36.76;23.38
64933;BME280;51446;53.850;10.662;2022-08-11T10:49:21;102346.44;;;34.92;26.38
64933;BME280;51446;53.850;10.662;2022-08-11T10:51:47;102348.19;;;33.54;28.85
64933;BME280;51446;53.850;10.662;2022-08-11T10:54:33;102344.00;;;33.80;28.08
64933;BME280;51446;53.850;10.662;2022-08-11T10:57:18;102343.69;;;35.91;24.71
64933;BME280;51446;53.850;10.662;2022-08-11T11:00:04;102339.81;;;35.81;23.59
64933;BME280;51446;53.850;10.662;2022-08-11T11:02:31;102340.56;;;35.41;24.17
64933;BME280;51446;53.850;10.662;2022-08-11T11:07:28;102339.75;;;33.27;28.61
64933;BME280;51446;53.850;10.662;2022-08-11T11:09:57;102334.66;;;34.61;26.82
64933;BME280;51446;53.850;10.662;2022-08-11T11:12:30;102331.50;;;35.41;26.48
64933;BME280;51446;53.850;10.662;2022-08-11T11:15:17;102338.53;;;33.48;28.27
64933;BME280;51446;53.850;10.662;2022-08-11T11:18:10;102340.06;;;33.20;29.67
64933;BME280;51446;53.850;10.662;2022-08-11T11:20:40;102343.78;;;33.99;28.18
64933;BME280;51446;53.850;10.662;2022-08-11T11:23:11;102339.94;;;33.87;27.11
64933;BME280;51446;53.850;10.662;2022-08-11T11:25:43;102337.13;;;33.41;27.57
64933;BME280;51446;53.850;10.662;2022-08-11T11:28:42;102332.88;;;32.33;28.25
64933;BME280;51446;53.850;10.662;2022-08-11T11:36:53;102332.28;;;31.54;29.15
64933;BME280;51446;53.850;10.662;2022-08-11T11:39:21;102331.75;;;32.20;28.96
64933;BME280;51446;53.850;10.662;2022-08-11T11:41:48;102335.88;;;31.91;29.37
64933;BME280;51446;53.850;10.662;2022-08-11T11:44:16;102334.63;;;32.34;28.08
64933;BME280;51446;53.850;10.662;2022-08-11T11:46:42;102339.00;;;32.90;27.78
64933;BME280;51446;53.850;10.662;2022-08-11T11:49:10;102342.38;;;33.60;25.74
64933;BME280;51446;53.850;10.662;2022-08-11T11:51:36;102334.22;;;30.91;29.08
64933;BME280;51446;53.850;10.662;2022-08-11T11:54:03;102330.91;;;30.85;31.10
64933;BME280;51446;53.850;10.662;2022-08-11T11:56:29;102339.38;;;32.12;29.77
64933;BME280;51446;53.850;10.662;2022-08-11T11:58:55;102341.41;;;29.86;30.38
64933;BME280;51446;53.850;10.662;2022-08-11T12:01:39;102335.84;;;30.95;30.37
64933;BME280;51446;53.850;10.662;2022-08-11T12:04:08;102331.28;;;31.17;29.95
64933;BME280;51446;53.850;10.662;2022-08-11T12:06:35;102331.78;;;31.06;30.71
64933;BME280;51446;53.850;10.662;2022-08-11T12:09:01;102336.00;;;31.51;30.18
64933;BME280;51446;53.850;10.662;2022-08-11T12:11:28;102331.72;;;31.83;28.50
64933;BME280;51446;53.850;10.662;2022-08-11T12:14:16;102332.41;;;31.51;29.80
64933;BME280;51446;53.850;10.662;2022-08-11T12:16:45;102332.84;;;30.40;29.73
64933;BME280;51446;53.850;10.662;2022-08-11T12:19:16;102321.25;;;31.19;30.66
64933;BME280;51446;53.850;10.662;2022-08-11T12:21:42;102331.06;;;31.21;30.44
64933;BME280;51446;53.850;10.662;2022-08-11T12:24:35;102323.06;;;31.58;30.00
64933;BME280;51446;53.850;10.662;2022-08-11T12:27:20;102317.75;;;31.17;30.21
64933;BME280;51446;53.850;10.662;2022-08-11T12:29:59;102320.84;;;31.28;29.53
64933;BME280;51446;53.850;10.662;2022-08-11T12:32:28;102324.06;;;31.74;30.58
64933;BME280;51446;53.850;10.662;2022-08-11T12:34:54;102328.44;;;30.80;29.98
64933;BME280;51446;53.850;10.662;2022-08-11T12:37:24;102317.97;;;30.30;29.82
64933;BME280;51446;53.850;10.662;2022-08-11T12:39:57;102309.53;;;30.58;29.73
64933;BME280;51446;53.850;10.662;2022-08-11T12:42:43;102308.31;;;30.44;31.90
64933;BME280;51446;53.850;10.662;2022-08-11T12:45:28;102318.22;;;29.57;31.40
64933;BME280;51446;53.850;10.662;2022-08-11T12:48:06;102308.22;;;29.12;31.66
64933;BME280;51446;53.850;10.662;2022-08-11T12:50:55;102304.09;;;29.49;31.43
64933;BME280;51446;53.850;10.662;2022-08-11T12:53:51;102307.63;;;29.97;32.59
64933;BME280;51446;53.850;10.662;2022-08-11T12:56:18;102296.09;;;29.69;31.04
64933;BME280;51446;53.850;10.662;2022-08-11T12:59:02;102293.25;;;29.72;31.21
64933;BME280;51446;53.850;10.662;2022-08-11T13:01:48;102293.78;;;30.25;31.27
64933;BME280;51446;53.850;10.662;2022-08-11T13:04:32;102286.72;;;30.22;30.89
64933;BME280;51446;53.850;10.662;2022-08-11T13:07:17;102282.78;;;30.30;31.27
64933;BME280;51446;53.850;10.662;2022-08-11T13:09:44;102287.34;;;29.85;32.15
64933;BME280;51446;53.850;10.662;2022-08-11T13:12:10;102282.50;;;30.15;30.46
64933;BME280;51446;53.850;10.662;2022-08-11T13:14:56;102287.16;;;29.67;31.25
64933;BME280;51446;53.850;10.662;2022-08-11T13:17:22;102280.09;;;29.87;30.80
64933;BME280;51446;53.850;10.662;2022-08-11T13:19:49;102272.13;;;29.60;31.66
64933;BME280;51446;53.850;10.662;2022-08-11T13:22:17;102282.53;;;29.93;31.57
64933;BME280;51446;53.850;10.662;2022-08-11T13:24:43;102270.25;;;28.67;31.63
64933;BME280;51446;53.850;10.662;2022-08-11T13:27:09;102273.03;;;28.89;31.44
64933;BME280;51446;53.850;10.662;2022-08-11T13:29:37;102269.63;;;28.59;32.82
64933;BME280;51446;53.850;10.662;2022-08-11T13:32:05;102263.66;;;28.49;31.68
64933;BME280;51446;53.850;10.662;2022-08-11T13:34:31;102265.09;;;28.34;32.00
64933;BME280;51446;53.850;10.662;2022-08-11T13:37:00;102259.72;;;28.85;33.12
64933;BME280;51446;53.850;10.662;2022-08-11T13:39:28;102263.63;;;28.76;32.18
64933;BME280;51446;53.850;10.662;2022-08-11T13:41:55;102256.59;;;28.72;32.39
64933;BME280;51446;53.850;10.662;2022-08-11T13:44:23;102260.59;;;29.09;31.45
64933;BME280;51446;53.850;10.662;2022-08-11T13:46:52;102256.41;;;28.77;33.52
64933;BME280;51446;53.850;10.662;2022-08-11T13:49:19;102254.81;;;29.18;32.55
64933;BME280;51446;53.850;10.662;2022-08-11T13:51:45;102250.50;;;28.90;31.85
64933;BME280;51446;53.850;10.662;2022-08-11T13:54:16;102244.84;;;29.20;32.56
64933;BME280;51446;53.850;10.662;2022-08-11T13:56:46;102251.84;;;28.79;32.52
64933;BME280;51446;53.850;10.662;2022-08-11T13:59:14;102240.53;;;28.17;32.66
64933;BME280;51446;53.850;10.662;2022-08-11T14:01:47;102242.91;;;28.26;33.71
64933;BME280;51446;53.850;10.662;2022-08-11T14:04:24;102233.59;;;28.35;33.49
64933;BME280;51446;53.850;10.662;2022-08-11T14:06:53;102242.06;;;28.51;32.97
64933;BME280;51446;53.850;10.662;2022-08-11T14:09:25;102238.25;;;28.31;33.73
64933;BME280;51446;53.850;10.662;2022-08-11T14:11:52;102235.13;;;28.42;34.37
64933;BME280;51446;53.850;10.662;2022-08-11T14:14:40;102228.06;;;28.40;34.58
64933;BME280;51446;53.850;10.662;2022-08-11T14:17:07;102234.47;;;28.10;32.94
64933;BME280;51446;53.850;10.662;2022-08-11T14:19:37;102233.72;;;27.78;33.25
64933;BME280;51446;53.850;10.662;2022-08-11T14:22:04;102228.75;;;27.93;34.61
64933;BME280;51446;53.850;10.662;2022-08-11T14:24:39;102229.13;;;28.09;34.35
64933;BME280;51446;53.850;10.662;2022-08-11T14:27:06;102223.81;;;28.07;33.47
64933;BME280;51446;53.850;10.662;2022-08-11T14:29:33;102227.84;;;27.94;33.99
64933;BME280;51446;53.850;10.662;2022-08-11T14:32:05;102232.97;;;27.75;33.62
64933;BME280;51446;53.850;10.662;2022-08-11T14:34:31;102229.06;;;27.57;34.69
64933;BME280;51446;53.850;10.662;2022-08-11T14:37:00;102230.13;;;27.79;34.50
64933;BME280;51446;53.850;10.662;2022-08-11T14:39:28;102225.13;;;27.67;33.56
64933;BME280;51446;53.850;10.662;2022-08-11T14:42:01;102224.81;;;27.76;33.91
64933;BME280;51446;53.850;10.662;2022-08-11T14:44:53;102226.53;;;27.22;34.61
64933;BME280;51446;53.850;10.662;2022-08-11T14:47:40;102222.47;;;27.39;33.79
64933;BME280;51446;53.850;10.662;2022-08-11T14:50:10;102219.28;;;27.24;35.89
64933;BME280;51446;53.850;10.662;2022-08-11T14:52:58;102216.47;;;26.99;35.14
64933;BME280;51446;53.850;10.662;2022-08-11T14:55:26;102217.38;;;26.98;36.87
64933;BME280;51446;53.850;10.662;2022-08-11T14:58:16;102212.78;;;27.02;35.98
64933;BME280;51446;53.850;10.662;2022-08-11T15:00:42;102214.06;;;27.18;36.35
64933;BME280;51446;53.850;10.662;2022-08-11T15:03:10;102220.03;;;26.99;36.40
64933;BME280;51446;53.850;10.662;2022-08-11T15:05:57;102215.22;;;26.81;36.97
64933;BME280;51446;53.850;10.662;2022-08-11T15:08:26;102215.94;;;26.86;36.60
64933;BME280;51446;53.850;10.662;2022-08-11T15:11:12;102216.44;;;26.67;36.98
64933;BME280;51446;53.850;10.662;2022-08-11T15:13:59;102209.53;;;26.59;37.45
64933;BME280;51446;53.850;10.662;2022-08-11T15:16:26;102210.47;;;26.56;37.19
64933;BME280;51446;53.850;10.662;2022-08-11T15:19:11;102211.81;;;26.41;38.05
64933;BME280;51446;53.850;10.662;2022-08-11T15:21:37;102209.44;;;26.30;38.22
64933;BME280;51446;53.850;10.662;2022-08-11T15:24:21;102206.59;;;26.35;39.29
64933;BME280;51446;53.850;10.662;2022-08-11T15:26:49;102207.25;;;26.12;39.06
64933;BME280;51446;53.850;10.662;2022-08-11T15:29:33;102207.94;;;26.19;38.26
64933;BME280;51446;53.850;10.662;2022-08-11T15:32:19;102206.41;;;26.08;38.91
64933;BME280;51446;53.850;10.662;2022-08-11T15:34:59;102206.41;;;26.08;39.16
64933;BME280;51446;53.850;10.662;2022-08-11T15:37:46;102202.00;;;26.06;39.42
64933;BME280;51446;53.850;10.662;2022-08-11T15:40:26;102194.63;;;26.14;39.68
64933;BME280;51446;53.850;10.662;2022-08-11T15:43:22;102189.91;;;25.88;41.10
64933;BME280;51446;53.850;10.662;2022-08-11T15:46:14;102197.66;;;25.66;40.57
64933;BME280;51446;53.850;10.662;2022-08-11T15:48:46;102181.81;;;25.89;40.67
64933;BME280;51446;53.850;10.662;2022-08-11T15:51:35;102179.81;;;25.97;40.01
64933;BME280;51446;53.850;10.662;2022-08-11T15:54:04;102178.34;;;25.84;39.11
64933;BME280;51446;53.850;10.662;2022-08-11T15:56:34;102187.84;;;25.63;40.38